createdAt,value
2018-01-29T00:02:19.908Z,46.33
2018-01-29T00:04:48.300Z,46.20
2018-01-29T00:07:16.797Z,46.06
2018-01-29T00:09:45.058Z,45.92
2018-01-29T00:12:13.016Z,45.91
2018-01-29T00:14:41.407Z,45.93
2018-01-29T00:17:09.553Z,45.89
2018-01-29T00:19:37.752Z,45.95
2018-01-29T00:22:05.710Z,46.06
2018-01-29T00:24:34.009Z,46.11
2018-01-29T00:27:02.150Z,46.39
2018-01-29T00:29:30.203Z,46.55
2018-01-29T00:31:58.169Z,46.74
2018-01-29T00:34:26.286Z,46.61
2018-01-29T00:36:54.260Z,46.80
2018-01-29T00:39:22.011Z,46.84
2018-01-29T00:41:49.987Z,46.88
2018-01-29T00:44:18.160Z,46.82
2018-01-29T00:46:46.220Z,46.44
2018-01-29T00:49:14.057Z,46.62
2018-01-29T00:51:42.871Z,46.67
2018-01-29T00:54:10.812Z,46.50
2018-01-29T00:56:39.036Z,46.19
2018-01-29T00:59:07.042Z,46.03
2018-01-29T01:01:35.264Z,46.00
2018-01-29T01:04:03.401Z,45.98
2018-01-29T01:06:31.687Z,45.89
2018-01-29T01:08:59.992Z,45.83
2018-01-29T01:11:28.121Z,45.79
2018-01-29T01:13:56.320Z,45.93
2018-01-29T01:16:24.474Z,45.95
2018-01-29T01:18:52.578Z,45.96
2018-01-29T01:21:20.542Z,45.91
2018-01-29T01:23:48.535Z,45.90
2018-01-29T01:26:16.289Z,45.77
2018-01-29T01:28:44.079Z,45.87
2018-01-29T01:31:12.113Z,46.41
2018-01-29T01:33:40.807Z,46.57
2018-01-29T01:36:09.184Z,46.30
2018-01-29T01:38:37.245Z,46.48
2018-01-29T01:41:05.934Z,46.93
2018-01-29T01:43:33.770Z,46.92
2018-01-29T01:46:02.070Z,47.20
2018-01-29T01:48:30.326Z,47.16
2018-01-29T01:50:58.266Z,46.90
2018-01-29T01:53:26.603Z,46.58
2018-01-29T01:55:55.349Z,46.58
2018-01-29T01:58:23.552Z,46.25
2018-01-29T02:00:51.679Z,46.03
2018-01-29T02:03:19.873Z,46.22
2018-01-29T02:05:48.062Z,46.54
2018-01-29T02:08:15.951Z,47.10
2018-01-29T02:10:44.167Z,47.01
2018-01-29T02:13:12.387Z,46.99
2018-01-29T02:15:40.621Z,47.06
2018-01-29T02:18:08.836Z,47.01
2018-01-29T02:20:36.686Z,46.98
2018-01-29T02:23:04.744Z,46.98
2018-01-29T02:25:33.049Z,47.17
2018-01-29T02:28:01.003Z,47.04
2018-01-29T02:30:28.968Z,46.98
2018-01-29T02:32:57.157Z,47.06
2018-01-29T02:35:25.097Z,46.97
2018-01-29T02:37:53.286Z,46.87
2018-01-29T02:40:21.229Z,46.70
2018-01-29T02:42:49.420Z,46.76
2018-01-29T02:45:17.921Z,46.65
2018-01-29T02:47:45.994Z,46.85
2018-01-29T02:50:14.382Z,46.98
2018-01-29T02:52:42.451Z,46.79
2018-01-29T02:55:10.598Z,46.67
2018-01-29T02:57:38.763Z,46.81
2018-01-29T03:00:09.601Z,46.40
2018-01-29T03:02:37.569Z,46.66
2018-01-29T03:05:05.761Z,46.64
2018-01-29T03:07:33.801Z,46.59
2018-01-29T03:10:01.764Z,46.37
2018-01-29T03:12:29.953Z,46.63
2018-01-29T03:14:58.151Z,46.79
2018-01-29T03:17:26.123Z,47.16
2018-01-29T03:19:54.294Z,47.19
2018-01-29T03:22:22.673Z,46.72
2018-01-29T03:24:50.633Z,46.25
2018-01-29T03:27:18.608Z,46.18
2018-01-29T03:29:46.738Z,46.04
2018-01-29T03:32:14.738Z,45.95
2018-01-29T03:34:42.774Z,45.80
2018-01-29T03:37:10.659Z,45.79
2018-01-29T03:39:38.723Z,46.08
2018-01-29T03:42:06.727Z,46.21
2018-01-29T03:44:34.857Z,46.19
2018-01-29T03:47:02.822Z,46.49
2018-01-29T03:49:30.911Z,46.67
2018-01-29T03:51:59.063Z,46.54
2018-01-29T03:54:27.143Z,46.34
2018-01-29T03:56:55.366Z,46.21
2018-01-29T03:59:24.348Z,46.47
2018-01-29T04:01:52.316Z,46.62
2018-01-29T04:04:20.286Z,46.40
2018-01-29T04:06:48.560Z,46.02
2018-01-29T04:09:16.838Z,45.92
2018-01-29T04:11:45.019Z,46.25
2018-01-29T04:14:13.142Z,46.52
2018-01-29T04:16:41.346Z,46.49
2018-01-29T04:19:09.241Z,46.19
2018-01-29T04:21:36.989Z,46.08
2018-01-29T04:24:05.365Z,45.77
2018-01-29T04:26:33.655Z,45.79
2018-01-29T04:29:01.812Z,45.75
2018-01-29T04:31:29.894Z,45.76
2018-01-29T04:33:59.065Z,45.75
2018-01-29T04:36:27.131Z,45.86
2018-01-29T04:38:55.199Z,45.81
2018-01-29T04:41:23.143Z,45.48
2018-01-29T04:43:51.363Z,45.49
2018-01-29T04:46:21.893Z,45.95
2018-01-29T04:48:49.961Z,45.84
2018-01-29T04:51:17.902Z,45.77
2018-01-29T04:53:46.068Z,45.83
2018-01-29T04:56:14.058Z,45.81
2018-01-29T04:58:41.796Z,46.28
2018-01-29T05:01:09.863Z,46.44
2018-01-29T05:03:38.084Z,45.99
2018-01-29T05:06:06.070Z,45.71
2018-01-29T05:08:34.084Z,45.43
2018-01-29T05:11:02.149Z,45.27
2018-01-29T05:13:30.400Z,45.36
2018-01-29T05:15:58.230Z,45.39
2018-01-29T05:18:26.369Z,45.35
2018-01-29T05:20:54.679Z,45.32
2018-01-29T05:23:22.653Z,45.31
2018-01-29T05:25:50.642Z,45.29
2018-01-29T05:28:18.657Z,45.32
2018-01-29T05:30:46.964Z,45.34
2018-01-29T05:33:15.239Z,45.38
2018-01-29T05:35:44.027Z,45.37
2018-01-29T05:38:12.771Z,45.40
2018-01-29T05:40:41.583Z,45.51
2018-01-29T05:43:09.488Z,45.50
2018-01-29T05:45:37.902Z,45.23
2018-01-29T05:48:05.926Z,45.01
2018-01-29T05:50:33.987Z,45.05
2018-01-29T05:53:01.987Z,45.05
2018-01-29T05:55:30.928Z,45.12
2018-01-29T05:57:58.894Z,44.93
2018-01-29T06:00:26.608Z,44.62
2018-01-29T06:02:54.411Z,44.32
2018-01-29T06:05:22.527Z,44.11
2018-01-29T06:07:50.692Z,44.02
2018-01-29T06:10:18.862Z,44.19
2018-01-29T06:12:46.588Z,44.41
2018-01-29T06:15:14.531Z,44.46
2018-01-29T06:17:42.269Z,44.60
2018-01-29T06:20:10.087Z,44.81
2018-01-29T06:22:38.006Z,44.04
2018-01-29T06:25:06.058Z,43.15
2018-01-29T06:27:33.957Z,42.54
2018-01-29T06:30:01.661Z,42.97
2018-01-29T06:32:29.738Z,43.42
2018-01-29T06:34:57.791Z,43.45
2018-01-29T06:37:25.524Z,43.37
2018-01-29T06:39:54.491Z,42.73
2018-01-29T06:42:22.348Z,42.49
2018-01-29T06:44:51.349Z,42.44
2018-01-29T06:47:19.926Z,42.18
2018-01-29T06:49:47.734Z,42.03
2018-01-29T06:52:15.999Z,41.84
2018-01-29T06:54:43.931Z,41.64
2018-01-29T06:57:12.702Z,41.60
2018-01-29T06:59:40.707Z,41.61
2018-01-29T07:02:09.649Z,41.41
2018-01-29T07:04:38.577Z,41.36
2018-01-29T07:07:06.965Z,41.37
2018-01-29T07:09:34.781Z,41.21
2018-01-29T07:12:02.988Z,41.23
2018-01-29T07:14:30.895Z,41.21
2018-01-29T07:16:59.215Z,41.06
2018-01-29T07:19:27.929Z,41.03
2018-01-29T07:21:55.848Z,41.04
2018-01-29T07:24:23.779Z,41.03
2018-01-29T07:26:52.003Z,40.96
2018-01-29T07:29:21.122Z,40.82
2018-01-29T07:31:49.658Z,40.80
2018-01-29T07:34:17.376Z,40.78
2018-01-29T07:36:45.692Z,40.64
2018-01-29T07:39:13.781Z,40.41
2018-01-29T07:41:41.805Z,40.05
2018-01-29T07:44:09.786Z,39.90
2018-01-29T07:46:37.754Z,39.77
2018-01-29T07:49:05.594Z,39.65
2018-01-29T07:51:33.461Z,39.63
2018-01-29T07:54:01.833Z,39.48
2018-01-29T07:56:29.916Z,39.36
2018-01-29T07:58:57.680Z,39.08
2018-01-29T08:01:25.491Z,39.05
2018-01-29T08:03:53.505Z,39.16
2018-01-29T08:06:21.276Z,39.41
2018-01-29T08:08:49.965Z,39.45
2018-01-29T08:13:45.606Z,39.71
2018-01-29T08:16:13.858Z,39.76
2018-01-29T08:18:41.633Z,39.69
2018-01-29T08:21:10.132Z,39.61
2018-01-29T08:23:39.010Z,39.51
2018-01-29T08:26:06.852Z,39.44
2018-01-29T08:28:34.555Z,39.45
2018-01-29T08:31:02.483Z,39.44
2018-01-29T08:33:30.374Z,39.34
2018-01-29T08:35:59.140Z,39.28
2018-01-29T08:38:26.832Z,39.28
2018-01-29T08:40:54.579Z,39.15
2018-01-29T08:43:22.840Z,39.12
2018-01-29T08:45:51.688Z,39.08
2018-01-29T08:48:20.670Z,39.08
2018-01-29T08:50:48.405Z,38.86
2018-01-29T08:53:16.463Z,38.86
2018-01-29T08:55:44.416Z,38.71
2018-01-29T08:58:12.610Z,38.72
2018-01-29T09:00:41.623Z,38.57
2018-01-29T09:03:09.689Z,38.62
2018-01-29T09:05:37.531Z,38.72
2018-01-29T09:08:36.843Z,38.77
2018-01-29T09:11:04.623Z,38.88
2018-01-29T09:13:32.739Z,38.93
2018-01-29T09:16:00.736Z,38.90
2018-01-29T09:18:29.437Z,38.75
2018-01-29T09:20:57.800Z,38.83
2018-01-29T09:23:25.633Z,38.85
2018-01-29T09:25:53.688Z,38.98
2018-01-29T09:28:24.485Z,38.80
2018-01-29T09:30:52.700Z,38.91
2018-01-29T09:33:20.618Z,39.11
2018-01-29T09:35:48.389Z,39.23
2018-01-29T09:38:16.651Z,39.24
2018-01-29T09:40:44.537Z,39.29
2018-01-29T09:43:12.297Z,39.36
2018-01-29T09:45:40.668Z,39.38
2018-01-29T09:48:08.760Z,39.40
2018-01-29T09:50:36.519Z,39.39
2018-01-29T09:53:04.283Z,39.49
2018-01-29T09:55:33.134Z,39.48
2018-01-29T09:58:02.145Z,39.20
2018-01-29T10:00:30.199Z,39.13
2018-01-29T10:02:58.855Z,39.17
2018-01-29T10:05:27.439Z,39.32
2018-01-29T10:07:55.469Z,39.46
2018-01-29T10:10:24.144Z,39.79
2018-01-29T10:12:53.181Z,40.13
2018-01-29T10:15:21.382Z,40.34
2018-01-29T10:17:49.285Z,40.54
2018-01-29T10:20:17.413Z,40.66
2018-01-29T10:22:45.408Z,40.81
2018-01-29T10:25:14.102Z,40.91
2018-01-29T10:27:42.838Z,41.03
2018-01-29T10:30:10.566Z,41.27
2018-01-29T10:32:38.930Z,41.64
2018-01-29T10:35:06.764Z,40.93
2018-01-29T10:37:34.652Z,40.28
2018-01-29T10:40:04.436Z,40.04
2018-01-29T10:42:33.458Z,39.99
2018-01-29T10:45:01.187Z,39.88
2018-01-29T10:47:29.847Z,39.90
2018-01-29T10:49:57.581Z,39.95
2018-01-29T10:52:25.347Z,40.04
2018-01-29T10:54:53.110Z,40.06
2018-01-29T10:57:21.074Z,39.68
2018-01-29T10:59:48.954Z,39.75
2018-01-29T11:02:17.980Z,39.86
2018-01-29T11:04:46.011Z,40.03
2018-01-29T11:07:13.834Z,40.10
2018-01-29T11:09:42.510Z,40.13
2018-01-29T11:12:10.230Z,40.10
2018-01-29T11:14:37.983Z,40.13
2018-01-29T11:17:06.061Z,40.10
2018-01-29T11:19:34.316Z,40.06
2018-01-29T11:22:02.555Z,39.86
2018-01-29T11:24:30.278Z,39.84
2018-01-29T11:26:58.461Z,39.57
2018-01-29T11:29:26.703Z,39.34
2018-01-29T11:31:54.780Z,39.51
2018-01-29T11:34:22.563Z,39.29
2018-01-29T11:36:50.318Z,39.18
2018-01-29T11:39:18.032Z,39.10
2018-01-29T11:41:46.187Z,39.27
2018-01-29T11:44:14.220Z,38.75
2018-01-29T11:46:42.489Z,38.53
2018-01-29T11:49:10.373Z,38.56
2018-01-29T11:51:38.619Z,38.60
2018-01-29T11:54:07.309Z,38.46
2018-01-29T11:56:36.117Z,38.19
2018-01-29T11:59:03.953Z,38.16
2018-01-29T12:01:31.687Z,37.79
2018-01-29T12:03:59.412Z,37.71
2018-01-29T12:06:28.165Z,37.69
2018-01-29T12:08:55.847Z,37.76
2018-01-29T12:11:23.620Z,37.42
2018-01-29T12:13:51.509Z,37.50
2018-01-29T12:16:20.464Z,37.53
2018-01-29T12:18:48.326Z,37.70
2018-01-29T12:21:16.683Z,37.21
2018-01-29T12:23:44.423Z,37.23
2018-01-29T12:26:12.413Z,37.17
2018-01-29T12:28:40.605Z,37.33
2018-01-29T12:31:08.494Z,37.33
2018-01-29T12:33:36.258Z,37.48
2018-01-29T12:36:04.087Z,37.42
2018-01-29T12:38:31.776Z,37.39
2018-01-29T12:40:59.530Z,37.16
2018-01-29T12:43:27.502Z,37.13
2018-01-29T12:45:56.189Z,37.15
2018-01-29T12:48:24.131Z,36.99
2018-01-29T12:50:51.823Z,36.96
2018-01-29T12:53:19.602Z,36.74
2018-01-29T12:57:48.097Z,36.46
2018-01-29T13:00:16.966Z,36.45
2018-01-29T13:02:44.854Z,36.56
2018-01-29T13:05:13.840Z,36.51
2018-01-29T13:07:43.534Z,36.57
2018-01-29T13:10:11.507Z,36.75
2018-01-29T13:12:39.589Z,36.89
2018-01-29T13:15:08.817Z,37.03
2018-01-29T13:17:37.612Z,37.11
2018-01-29T13:20:05.715Z,37.10
2018-01-29T13:22:33.416Z,37.00
2018-01-29T13:25:02.408Z,37.04
2018-01-29T13:27:30.965Z,36.88
2018-01-29T13:29:59.514Z,37.07
2018-01-29T13:32:27.426Z,37.24
2018-01-29T13:34:55.296Z,37.43
2018-01-29T13:37:23.055Z,37.68
2018-01-29T13:39:51.746Z,37.87
2018-01-29T13:42:19.510Z,37.91
2018-01-29T13:44:47.576Z,37.90
2018-01-29T13:47:15.659Z,37.91
2018-01-29T13:49:43.524Z,38.04
2018-01-29T13:52:11.485Z,38.24
2018-01-29T13:54:39.684Z,38.35
2018-01-29T13:57:07.919Z,38.44
2018-01-29T13:59:36.000Z,38.49
2018-01-29T14:02:04.076Z,38.60
2018-01-29T14:04:32.198Z,38.59
2018-01-29T14:07:01.191Z,38.55
2018-01-29T14:09:28.917Z,38.70
2018-01-29T14:11:56.973Z,38.87
2018-01-29T14:14:25.669Z,39.07
2018-01-29T14:16:55.866Z,39.25
2018-01-29T14:19:23.699Z,39.44
2018-01-29T14:21:51.708Z,39.64
2018-01-29T14:24:19.527Z,39.69
2018-01-29T14:26:47.244Z,39.78
2018-01-29T14:29:16.102Z,39.84
2018-01-29T14:31:44.651Z,39.91
2018-01-29T14:34:12.832Z,39.97
2018-01-29T14:36:40.898Z,39.77
2018-01-29T14:39:09.914Z,39.79
2018-01-29T14:41:39.087Z,39.86
2018-01-29T14:44:06.764Z,39.98
2018-01-29T14:46:35.299Z,40.07
2018-01-29T14:49:03.005Z,40.14
2018-01-29T14:51:30.933Z,40.21
2018-01-29T14:53:58.649Z,40.25
2018-01-29T14:56:26.615Z,40.30
2018-01-29T14:58:54.378Z,40.40
2018-01-29T15:01:22.095Z,40.46
2018-01-29T15:03:50.733Z,40.55
2018-01-29T15:06:18.563Z,40.65
2018-01-29T15:08:47.955Z,40.75
2018-01-29T15:11:16.190Z,40.82
2018-01-29T15:13:44.037Z,40.86
2018-01-29T15:16:11.735Z,40.94
2018-01-29T15:18:40.366Z,41.03
2018-01-29T15:21:08.181Z,41.13
2018-01-29T15:23:36.203Z,41.24
2018-01-29T15:26:04.851Z,41.37
2018-01-29T15:28:33.301Z,41.48
2018-01-29T15:31:01.570Z,41.65
2018-01-29T15:33:29.511Z,41.73
2018-01-29T15:35:58.628Z,41.75
2018-01-29T15:38:27.491Z,41.84
2018-01-29T15:40:56.114Z,41.89
2018-01-29T15:43:23.948Z,41.97
2018-01-29T15:45:51.963Z,42.14
2018-01-29T15:48:20.229Z,42.26
2018-01-29T15:50:48.178Z,42.35
2018-01-29T15:53:16.985Z,42.38
2018-01-29T15:55:45.052Z,42.26
2018-01-29T15:58:13.532Z,42.33
2018-01-29T16:00:42.283Z,42.42
2018-01-29T16:03:11.650Z,42.50
2018-01-29T16:05:40.827Z,42.59
2018-01-29T16:08:09.188Z,42.64
2018-01-29T16:10:37.343Z,42.71
2018-01-29T16:13:06.216Z,42.77
2018-01-29T16:15:34.695Z,42.87
2018-01-29T16:18:03.052Z,42.92
2018-01-29T16:20:31.832Z,42.90
2018-01-29T16:22:59.871Z,42.90
2018-01-29T16:25:28.886Z,43.10
2018-01-29T16:27:57.142Z,42.94
2018-01-29T16:30:25.882Z,42.68
2018-01-29T16:32:53.983Z,42.67
2018-01-29T16:35:22.592Z,42.72
2018-01-29T16:37:51.694Z,42.76
2018-01-29T16:40:20.880Z,42.79
2018-01-29T16:42:50.176Z,42.73
2018-01-29T16:45:19.064Z,42.71
2018-01-29T16:47:47.006Z,42.71
2018-01-29T16:50:20.104Z,42.66
2018-01-29T16:52:48.356Z,42.57
2018-01-29T16:55:18.828Z,42.53
2018-01-29T16:57:46.896Z,42.58
2018-01-29T17:00:15.454Z,42.51
2018-01-29T17:02:44.879Z,42.46
2018-01-29T17:05:13.269Z,42.43
2018-01-29T17:07:41.502Z,42.48
2018-01-29T17:10:09.867Z,42.40
2018-01-29T17:12:38.760Z,42.31
2018-01-29T17:15:06.785Z,42.29
2018-01-29T17:17:35.213Z,42.31
2018-01-29T17:20:04.657Z,42.36
2018-01-29T17:22:33.656Z,41.31
2018-01-29T17:25:02.940Z,41.21
2018-01-29T17:27:31.603Z,41.39
2018-01-29T17:29:59.593Z,41.39
2018-01-29T17:32:28.696Z,41.45
2018-01-29T17:34:57.634Z,41.47
2018-01-29T17:37:26.665Z,41.52
2018-01-29T17:39:54.690Z,41.43
2018-01-29T17:42:22.795Z,41.21
2018-01-29T17:44:50.886Z,41.09
2018-01-29T17:47:18.811Z,41.14
2018-01-29T17:49:47.967Z,41.30
2018-01-29T17:52:16.335Z,41.31
2018-01-29T17:54:46.126Z,41.45
2018-01-29T17:57:14.614Z,41.47
2018-01-29T17:59:43.005Z,41.46
2018-01-29T18:02:11.005Z,41.57
2018-01-29T18:04:39.151Z,41.56
2018-01-29T18:07:07.867Z,41.46
2018-01-29T18:09:35.817Z,41.53
2018-01-29T18:12:04.085Z,41.53
2018-01-29T18:14:31.948Z,41.57
2018-01-29T18:17:00.528Z,41.72
2018-01-29T18:19:28.807Z,41.82
2018-01-29T18:21:56.820Z,41.93
2018-01-29T18:24:25.742Z,42.00
2018-01-29T18:26:54.356Z,42.17
2018-01-29T18:29:22.514Z,42.29
2018-01-29T18:31:50.797Z,42.25
2018-01-29T18:34:19.480Z,42.34
2018-01-29T18:36:47.858Z,42.40
2018-01-29T18:39:18.386Z,42.58
2018-01-29T18:41:47.090Z,42.62
2018-01-29T18:44:15.472Z,42.57
2018-01-29T18:46:43.612Z,42.61
2018-01-29T18:49:11.804Z,42.57
2018-01-29T18:51:39.969Z,42.52
2018-01-29T18:54:08.123Z,42.56
2018-01-29T18:56:36.740Z,42.61
2018-01-29T18:59:05.480Z,42.70
2018-01-29T19:01:33.680Z,42.83
2018-01-29T19:04:01.736Z,42.92
2018-01-29T19:06:29.712Z,42.91
2018-01-29T19:08:57.766Z,42.90
2018-01-29T19:11:26.034Z,42.85
2018-01-29T19:13:54.172Z,42.83
2018-01-29T19:16:23.345Z,42.85
2018-01-29T19:18:52.451Z,42.90
2018-01-29T19:21:20.704Z,42.88
2018-01-29T19:23:50.011Z,42.90
2018-01-29T19:26:19.128Z,42.91
2018-01-29T19:28:47.276Z,42.89
2018-01-29T19:31:15.283Z,42.84
2018-01-29T19:33:43.649Z,42.89
2018-01-29T19:36:13.340Z,42.91
2018-01-29T19:38:42.006Z,42.93
2018-01-29T19:41:10.395Z,42.92
2018-01-29T19:43:38.641Z,42.96
2018-01-29T19:46:06.746Z,42.84
2018-01-29T19:48:35.740Z,42.82
2018-01-29T19:51:04.121Z,42.82
2018-01-29T19:53:32.250Z,42.91
2018-01-29T19:56:01.098Z,42.84
2018-01-29T19:58:30.196Z,42.94
2018-01-29T20:00:58.072Z,42.75
2018-01-29T20:03:26.185Z,42.76
2018-01-29T20:05:54.150Z,42.88
2018-01-29T20:08:22.891Z,42.97
2018-01-29T20:10:51.142Z,43.02
2018-01-29T20:13:18.976Z,43.15
2018-01-29T20:15:47.284Z,43.21
2018-01-29T20:18:15.928Z,43.25
2018-01-29T20:20:44.664Z,43.26
2018-01-29T20:23:14.875Z,43.22
2018-01-29T20:25:43.059Z,43.24
2018-01-29T20:28:11.219Z,43.44
2018-01-29T20:30:39.807Z,43.61
2018-01-29T20:33:08.546Z,43.60
2018-01-29T20:35:36.777Z,43.71
2018-01-29T20:38:05.147Z,43.72
2018-01-29T20:40:33.295Z,43.74
2018-01-29T20:43:02.222Z,43.78
2018-01-29T20:45:31.326Z,43.89
2018-01-29T20:47:59.578Z,43.79
2018-01-29T20:50:27.956Z,43.79
2018-01-29T20:52:56.673Z,43.79
2018-01-29T20:55:24.862Z,43.83
2018-01-29T20:57:53.304Z,43.88
2018-01-29T21:00:22.091Z,43.86
2018-01-29T21:02:50.472Z,43.95
2018-01-29T21:05:19.161Z,43.91
2018-01-29T21:07:47.875Z,43.95
2018-01-29T21:10:15.981Z,44.07
2018-01-29T21:12:45.071Z,44.17
2018-01-29T21:15:13.001Z,44.22
2018-01-29T21:17:41.003Z,44.19
2018-01-29T21:20:09.725Z,44.23
2018-01-29T21:22:38.114Z,44.32
2018-01-29T21:25:06.786Z,44.30
2018-01-29T21:27:34.915Z,44.36
2018-01-29T21:30:03.157Z,44.27
2018-01-29T21:32:31.920Z,44.38
2018-01-29T21:35:00.188Z,44.37
2018-01-29T21:37:28.735Z,44.39
2018-01-29T21:39:57.667Z,44.33
2018-01-29T21:42:26.046Z,44.29
2018-01-29T21:44:54.250Z,44.29
2018-01-29T21:47:22.264Z,44.41
2018-01-29T21:49:50.262Z,44.36
2018-01-29T21:52:18.980Z,44.34
2018-01-29T21:54:47.215Z,44.26
2018-01-29T21:57:15.202Z,44.24
2018-01-29T21:59:43.543Z,44.21
2018-01-29T22:02:11.746Z,44.23
2018-01-29T22:04:39.875Z,44.25
2018-01-29T22:07:08.291Z,44.34
2018-01-29T22:09:37.509Z,44.39
2018-01-29T22:12:06.279Z,44.42
2018-01-29T22:14:34.536Z,44.45
2018-01-29T22:17:02.750Z,44.46
2018-01-29T22:19:31.154Z,44.53
2018-01-29T22:21:59.384Z,44.59
2018-01-29T22:24:28.383Z,44.72
2018-01-29T22:26:56.549Z,44.65
2018-01-29T22:29:24.627Z,44.63
2018-01-29T22:31:52.439Z,44.68
2018-01-29T22:34:20.287Z,44.69
2018-01-29T22:36:48.387Z,44.75
2018-01-29T22:39:17.466Z,44.82
2018-01-29T22:41:45.410Z,44.89
2018-01-29T22:44:13.659Z,44.88
2018-01-29T22:46:41.788Z,44.85
2018-01-29T22:49:09.988Z,44.82
2018-01-29T22:51:38.072Z,44.80
2018-01-29T22:54:06.135Z,44.85
2018-01-29T22:56:34.077Z,44.79
2018-01-29T22:59:01.966Z,44.72
2018-01-29T23:01:29.909Z,44.71
2018-01-29T23:03:58.123Z,44.73
2018-01-29T23:06:26.148Z,44.77
2018-01-29T23:08:54.130Z,44.80
2018-01-29T23:11:22.326Z,44.79
2018-01-29T23:13:50.295Z,44.82
2018-01-29T23:16:18.294Z,44.86
2018-01-29T23:18:46.048Z,44.78
2018-01-29T23:21:13.934Z,44.83
2018-01-29T23:23:41.948Z,44.96
2018-01-29T23:26:10.141Z,45.02
2018-01-29T23:28:38.116Z,45.10
2018-01-29T23:31:06.145Z,45.07
2018-01-29T23:33:34.885Z,45.11
2018-01-29T23:36:03.146Z,45.17
2018-01-29T23:38:31.523Z,45.14
2018-01-29T23:40:59.560Z,45.15
2018-01-29T23:43:27.473Z,45.17
2018-01-29T23:45:55.528Z,45.13
2018-01-29T23:48:23.404Z,45.14
2018-01-29T23:50:51.344Z,45.09
2018-01-29T23:53:19.651Z,45.11
2018-01-29T23:55:47.777Z,45.12
2018-01-29T23:58:15.871Z,45.17
